createdAt,value
2023-01-19T00:02:45.913Z,4.40
2023-01-19T00:05:34.618Z,4.50
2023-01-19T00:08:23.007Z,4.40
2023-01-19T00:11:11.435Z,4.40
2023-01-19T00:13:59.820Z,4.40
2023-01-19T00:16:49.550Z,4.40
2023-01-19T00:19:37.953Z,4.40
2023-01-19T00:22:26.338Z,4.40
2023-01-19T00:25:14.801Z,4.40
2023-01-19T00:28:03.203Z,4.40
2023-01-19T00:30:51.989Z,4.40
2023-01-19T00:33:41.761Z,4.40
2023-01-19T00:36:30.142Z,4.40
2023-01-19T00:39:18.629Z,4.40
2023-01-19T00:42:24.508Z,4.40
2023-01-19T00:45:14.605Z,4.40
2023-01-19T00:48:03.176Z,4.40
2023-01-19T00:50:52.969Z,4.40
2023-01-19T00:53:41.320Z,4.40
2023-01-19T00:56:29.683Z,4.40
2023-01-19T00:59:18.097Z,4.40
2023-01-19T01:02:06.760Z,4.40
2023-01-19T01:04:56.747Z,4.40
2023-01-19T01:07:48.260Z,4.40
2023-01-19T01:10:36.680Z,4.40
2023-01-19T01:13:27.466Z,4.40
2023-01-19T01:16:16.778Z,4.50
2023-01-19T01:19:08.096Z,4.40
2023-01-19T01:21:56.697Z,4.50
2023-01-19T01:24:46.412Z,4.50
2023-01-19T01:27:34.833Z,4.50
2023-01-19T01:30:23.310Z,4.60
2023-01-19T01:33:13.276Z,4.60
2023-01-19T01:36:01.685Z,4.60
2023-01-19T01:38:50.897Z,4.60
2023-01-19T01:41:40.706Z,4.60
2023-01-19T01:44:50.736Z,4.70
2023-01-19T01:47:42.406Z,4.70
2023-01-19T01:50:31.479Z,4.70
2023-01-19T01:53:19.873Z,4.80
2023-01-19T01:56:12.730Z,4.80
2023-01-19T01:59:03.605Z,4.80
2023-01-19T02:02:09.541Z,4.80
2023-01-19T02:05:00.849Z,4.80
2023-01-19T02:08:09.817Z,4.80
2023-01-19T02:11:15.965Z,4.80
2023-01-19T02:14:06.542Z,4.90
2023-01-19T02:16:55.046Z,4.90
2023-01-19T02:19:43.921Z,4.90
2023-01-19T02:22:38.874Z,4.90
2023-01-19T02:25:28.606Z,4.90
2023-01-19T02:28:16.998Z,4.90
2023-01-19T02:31:06.252Z,4.90
2023-01-19T02:33:55.544Z,4.90
2023-01-19T02:36:49.954Z,4.90
2023-01-19T02:39:40.151Z,4.90
2023-01-19T02:42:32.210Z,4.90
2023-01-19T02:45:22.925Z,4.90
2023-01-19T02:48:11.352Z,5.00
2023-01-19T02:51:04.133Z,5.00
2023-01-19T02:54:22.124Z,5.00
2023-01-19T02:57:44.574Z,5.00
2023-01-19T03:00:38.142Z,5.00
2023-01-19T03:03:31.589Z,5.00
2023-01-19T03:06:28.087Z,5.00
2023-01-19T03:09:21.872Z,5.00
2023-01-19T03:12:13.211Z,5.00
2023-01-19T03:15:06.503Z,5.00
2023-01-19T03:17:54.923Z,4.90
2023-01-19T03:21:08.156Z,5.00
2023-01-19T03:23:57.226Z,5.00
2023-01-19T03:26:48.686Z,5.00
2023-01-19T03:29:37.102Z,5.00
2023-01-19T03:32:30.196Z,5.00
2023-01-19T03:35:19.281Z,5.00
2023-01-19T03:38:10.637Z,5.00
2023-01-19T03:41:01.431Z,5.00
2023-01-19T03:43:51.262Z,5.00
2023-01-19T03:46:39.683Z,5.00
2023-01-19T03:49:31.439Z,5.00
2023-01-19T03:52:19.880Z,5.00
2023-01-19T03:55:09.989Z,5.00
2023-01-19T03:57:58.549Z,5.00
2023-01-19T04:00:46.948Z,5.00
2023-01-19T04:03:35.346Z,5.00
2023-01-19T04:06:25.066Z,5.00
2023-01-19T04:09:13.497Z,5.00
2023-01-19T04:12:03.704Z,5.00
2023-01-19T04:14:52.202Z,5.00
2023-01-19T04:17:40.754Z,5.00
2023-01-19T04:20:29.699Z,5.00
2023-01-19T04:23:19.836Z,5.00
2023-01-19T04:26:09.351Z,5.00
2023-01-19T04:28:57.815Z,5.00
2023-01-19T04:31:46.337Z,5.10
2023-01-19T04:34:34.814Z,5.10
2023-01-19T04:37:23.463Z,5.10
2023-01-19T04:40:13.868Z,5.10
2023-01-19T04:43:02.637Z,5.10
2023-01-19T04:45:51.518Z,5.10
2023-01-19T04:48:41.316Z,5.10
2023-01-19T04:51:30.623Z,5.10
2023-01-19T04:54:19.098Z,5.10
2023-01-19T04:57:08.846Z,5.10
2023-01-19T04:59:57.323Z,5.00
2023-01-19T05:02:45.786Z,5.00
2023-01-19T05:05:34.272Z,5.00
2023-01-19T05:08:22.734Z,5.00
2023-01-19T05:11:11.126Z,5.00
2023-01-19T05:14:00.833Z,4.90
2023-01-19T05:16:49.313Z,5.00
2023-01-19T05:19:37.713Z,5.00
2023-01-19T05:22:26.402Z,5.00
2023-01-19T05:25:14.801Z,5.00
2023-01-19T05:28:03.993Z,5.00
2023-01-19T05:30:54.716Z,5.00
2023-01-19T05:33:43.172Z,5.00
2023-01-19T05:36:32.034Z,5.00
2023-01-19T05:39:21.117Z,5.00
2023-01-19T05:42:09.542Z,5.00
2023-01-19T05:44:59.436Z,5.00
2023-01-19T05:47:49.193Z,4.90
2023-01-19T05:50:37.605Z,4.90
2023-01-19T05:53:26.184Z,4.90
2023-01-19T05:56:14.619Z,4.90
2023-01-19T05:59:03.146Z,4.90
2023-01-19T06:01:52.068Z,4.90
2023-01-19T06:04:41.935Z,4.90
2023-01-19T06:07:31.707Z,4.90
2023-01-19T06:10:20.387Z,4.80
2023-01-19T06:13:09.758Z,4.80
2023-01-19T06:15:59.653Z,4.80
2023-01-19T06:18:48.182Z,4.80
2023-01-19T06:21:38.185Z,4.80
2023-01-19T06:24:26.596Z,4.80
2023-01-19T06:27:14.966Z,4.70
2023-01-19T06:30:03.443Z,4.70
2023-01-19T06:32:52.007Z,4.80
2023-01-19T06:35:40.434Z,4.80
2023-01-19T06:38:30.673Z,4.80
2023-01-19T06:41:19.095Z,4.90
2023-01-19T06:44:08.021Z,5.00
2023-01-19T06:47:15.580Z,5.10
2023-01-19T06:50:04.965Z,5.10
2023-01-19T06:52:53.510Z,5.20
2023-01-19T06:55:43.747Z,5.20
2023-01-19T06:58:33.779Z,5.20
2023-01-19T07:01:22.296Z,5.20
2023-01-19T07:04:28.803Z,5.10
2023-01-19T07:07:20.835Z,5.10
2023-01-19T07:10:11.699Z,5.10
2023-01-19T07:13:01.822Z,5.10
2023-01-19T07:15:51.415Z,5.10
2023-01-19T07:18:40.272Z,5.10
2023-01-19T07:21:29.377Z,5.10
2023-01-19T07:24:18.122Z,5.10
2023-01-19T07:27:06.569Z,5.10
2023-01-19T07:29:56.473Z,5.10
2023-01-19T07:32:44.904Z,5.10
2023-01-19T07:35:33.327Z,5.10
2023-01-19T07:38:21.736Z,5.10
2023-01-19T07:41:11.955Z,5.10
2023-01-19T07:44:00.329Z,5.10
2023-01-19T07:46:51.132Z,5.10
2023-01-19T07:49:39.901Z,5.20
2023-01-19T07:52:28.351Z,5.20
2023-01-19T07:55:17.031Z,5.20
2023-01-19T07:58:07.391Z,5.20
2023-01-19T08:00:55.958Z,5.20
2023-01-19T08:03:46.530Z,5.20
2023-01-19T08:06:35.843Z,5.20
2023-01-19T08:09:24.713Z,5.20
2023-01-19T08:12:13.056Z,5.20
2023-01-19T08:15:01.565Z,5.20
2023-01-19T08:17:57.376Z,5.20
2023-01-19T08:20:47.148Z,5.20
2023-01-19T08:23:35.603Z,5.20
2023-01-19T08:26:29.282Z,5.20
2023-01-19T08:29:17.702Z,5.20
2023-01-19T08:32:06.869Z,5.20
2023-01-19T08:34:55.399Z,5.20
2023-01-19T08:37:45.241Z,5.20
2023-01-19T08:40:35.131Z,5.20
2023-01-19T08:43:23.531Z,5.30
2023-01-19T08:46:12.050Z,5.30
2023-01-19T08:49:00.471Z,5.30
2023-01-19T08:51:49.100Z,5.30
2023-01-19T08:54:38.940Z,5.40
2023-01-19T08:57:28.240Z,5.40
2023-01-19T09:00:18.085Z,5.40
2023-01-19T09:03:07.172Z,5.40
2023-01-19T09:05:55.684Z,5.50
2023-01-19T09:08:44.109Z,5.50
2023-01-19T09:11:34.941Z,5.50
2023-01-19T09:14:23.400Z,5.60
2023-01-19T09:17:12.320Z,5.60
2023-01-19T09:20:00.713Z,5.60
2023-01-19T09:22:49.115Z,5.70
2023-01-19T09:25:37.927Z,5.70
2023-01-19T09:28:28.644Z,5.70
2023-01-19T09:31:17.354Z,5.70
2023-01-19T09:34:05.817Z,5.80
2023-01-19T09:36:54.222Z,5.80
2023-01-19T09:39:42.800Z,5.80
2023-01-19T09:42:35.740Z,5.80
2023-01-19T09:45:30.804Z,5.80
2023-01-19T09:48:29.117Z,5.80
2023-01-19T09:51:20.289Z,5.80
2023-01-19T09:54:14.026Z,5.90
2023-01-19T09:57:02.483Z,6.00
2023-01-19T09:59:51.485Z,6.20
2023-01-19T10:02:44.026Z,6.40
2023-01-19T10:05:35.164Z,6.70
2023-01-19T10:08:26.657Z,7.00
2023-01-19T10:11:26.315Z,7.30
2023-01-19T10:14:20.214Z,7.60
2023-01-19T10:17:21.364Z,7.90
2023-01-19T10:20:14.656Z,8.20
2023-01-19T10:23:03.753Z,8.40
2023-01-19T10:25:52.711Z,8.60
2023-01-19T10:28:41.186Z,8.70
2023-01-19T10:31:29.688Z,8.60
2023-01-19T10:34:22.944Z,8.50
2023-01-19T10:37:28.601Z,8.40
2023-01-19T10:40:23.768Z,8.30
2023-01-19T10:43:36.703Z,8.30
2023-01-19T10:46:30.380Z,8.50
2023-01-19T10:49:26.010Z,8.60
2023-01-19T10:52:32.147Z,8.70
2023-01-19T10:55:29.111Z,8.80
2023-01-19T10:58:31.439Z,8.70
2023-01-19T11:01:21.747Z,8.60
2023-01-19T11:04:22.612Z,8.50
2023-01-19T11:07:15.853Z,8.30
2023-01-19T11:10:22.526Z,8.10
2023-01-19T11:13:13.391Z,8.00
2023-01-19T11:16:06.804Z,7.90
2023-01-19T11:18:56.758Z,7.80
2023-01-19T11:21:45.354Z,7.70
2023-01-19T11:24:33.843Z,7.70
2023-01-19T11:27:23.674Z,7.60
2023-01-19T11:30:19.323Z,7.50
2023-01-19T11:33:07.778Z,7.40
2023-01-19T11:36:05.140Z,7.40
2023-01-19T11:38:54.819Z,7.30
2023-01-19T11:41:44.794Z,7.30
2023-01-19T11:44:36.435Z,7.20
2023-01-19T11:47:27.020Z,7.20
2023-01-19T11:50:29.349Z,7.20
2023-01-19T11:53:20.176Z,7.10
2023-01-19T11:56:10.963Z,7.10
2023-01-19T11:58:59.374Z,7.10
2023-01-19T12:01:51.576Z,7.10
2023-01-19T12:04:40.383Z,7.20
2023-01-19T12:07:31.214Z,7.10
2023-01-19T12:10:25.590Z,7.10
2023-01-19T12:13:21.997Z,7.10
2023-01-19T12:16:13.035Z,7.10
2023-01-19T12:19:05.407Z,7.10
2023-01-19T12:21:53.783Z,7.10
2023-01-19T12:24:46.957Z,7.10
2023-01-19T12:27:40.025Z,7.10
2023-01-19T12:30:29.945Z,7.10
2023-01-19T12:33:35.863Z,7.10
2023-01-19T12:36:38.711Z,7.10
2023-01-19T12:39:27.171Z,7.10
2023-01-19T12:42:17.126Z,7.10
2023-01-19T12:45:08.047Z,7.10
2023-01-19T12:47:56.868Z,7.10
2023-01-19T12:50:45.259Z,7.10
2023-01-19T12:53:35.035Z,7.10
2023-01-19T12:56:28.796Z,7.10
2023-01-19T12:59:24.693Z,7.10
2023-01-19T13:02:41.877Z,7.10
2023-01-19T13:05:51.251Z,7.00
2023-01-19T13:09:00.738Z,7.10
2023-01-19T13:12:21.620Z,7.10
2023-01-19T13:15:29.667Z,7.10
2023-01-19T13:18:19.199Z,7.10
2023-01-19T13:21:08.125Z,7.10
2023-01-19T13:23:59.414Z,7.20
2023-01-19T13:26:57.451Z,7.20
2023-01-19T13:29:45.922Z,7.20
2023-01-19T13:32:34.388Z,7.20
2023-01-19T13:35:22.828Z,7.20
2023-01-19T13:38:12.758Z,7.20
2023-01-19T13:41:02.502Z,7.20
2023-01-19T13:44:00.785Z,7.20
2023-01-19T13:46:49.713Z,7.20
2023-01-19T13:49:40.180Z,7.20
2023-01-19T13:52:29.645Z,7.20
2023-01-19T13:55:20.360Z,7.20
2023-01-19T13:58:22.173Z,7.20
2023-01-19T14:01:23.007Z,7.20
2023-01-19T14:04:28.805Z,7.20
2023-01-19T14:07:26.175Z,7.30
2023-01-19T14:10:16.630Z,7.30
2023-01-19T14:13:06.259Z,7.30
2023-01-19T14:15:58.069Z,7.30
2023-01-19T14:18:46.534Z,7.30
2023-01-19T14:21:41.639Z,7.30
2023-01-19T14:24:32.141Z,7.30
2023-01-19T14:27:23.007Z,7.30
2023-01-19T14:30:19.903Z,7.30
2023-01-19T14:33:33.843Z,7.30
2023-01-19T14:36:33.941Z,7.30
2023-01-19T14:39:25.306Z,7.30
2023-01-19T14:42:18.793Z,7.20
2023-01-19T14:45:14.533Z,7.20
2023-01-19T14:48:05.387Z,7.20
2023-01-19T14:51:03.553Z,7.20
2023-01-19T14:53:54.177Z,7.10
2023-01-19T14:56:42.641Z,7.10
2023-01-19T14:59:31.103Z,7.10
2023-01-19T15:02:19.774Z,7.00
2023-01-19T15:05:09.835Z,7.00
2023-01-19T15:07:59.583Z,7.00
2023-01-19T15:10:48.007Z,7.00
2023-01-19T15:13:36.646Z,7.00
2023-01-19T15:16:25.138Z,7.00
2023-01-19T15:19:13.865Z,7.00
2023-01-19T15:22:02.235Z,7.00
2023-01-19T15:24:52.043Z,7.00
2023-01-19T15:27:40.479Z,7.00
2023-01-19T15:30:31.010Z,7.00
2023-01-19T15:33:20.588Z,7.00
2023-01-19T15:36:13.610Z,7.00
2023-01-19T15:39:02.028Z,7.00
2023-01-19T15:41:51.805Z,7.00
2023-01-19T15:44:40.258Z,7.00
2023-01-19T15:47:28.667Z,7.10
2023-01-19T15:50:17.659Z,7.00
2023-01-19T15:53:06.123Z,7.00
2023-01-19T15:55:55.503Z,7.00
2023-01-19T15:58:45.376Z,7.00
2023-01-19T16:01:34.991Z,7.00
2023-01-19T16:04:23.510Z,6.90
2023-01-19T16:07:12.586Z,6.90
2023-01-19T16:10:01.124Z,6.90
2023-01-19T16:12:49.572Z,6.90
2023-01-19T16:15:40.284Z,6.90
2023-01-19T16:18:28.747Z,6.90
2023-01-19T16:21:17.306Z,6.90
2023-01-19T16:24:06.140Z,6.90
2023-01-19T16:26:54.551Z,6.90
2023-01-19T16:29:42.911Z,6.90
2023-01-19T16:32:33.835Z,6.90
2023-01-19T16:35:22.231Z,6.80
2023-01-19T16:38:10.649Z,6.80
2023-01-19T16:40:59.003Z,6.70
2023-01-19T16:43:52.837Z,6.70
2023-01-19T16:46:42.326Z,6.70
2023-01-19T16:49:32.163Z,6.70
2023-01-19T16:52:20.617Z,6.60
2023-01-19T16:55:11.180Z,6.60
2023-01-19T16:57:59.617Z,6.60
2023-01-19T17:00:48.080Z,6.60
2023-01-19T17:03:37.857Z,6.60
2023-01-19T17:06:28.697Z,6.50
2023-01-19T17:09:17.187Z,6.50
2023-01-19T17:12:08.780Z,6.50
2023-01-19T17:14:57.211Z,6.50
2023-01-19T17:17:45.638Z,6.40
2023-01-19T17:20:34.805Z,6.40
2023-01-19T17:23:24.558Z,6.40
2023-01-19T17:26:13.032Z,6.40
2023-01-19T17:29:01.583Z,6.30
2023-01-19T17:31:51.366Z,6.30
2023-01-19T17:34:40.057Z,6.50
2023-01-19T17:37:28.516Z,6.30
2023-01-19T17:40:18.857Z,6.30
2023-01-19T17:43:07.597Z,6.30
2023-01-19T17:45:56.073Z,6.30
2023-01-19T17:48:44.823Z,6.30
2023-01-19T17:51:33.565Z,6.30
2023-01-19T17:54:22.081Z,6.30
2023-01-19T17:57:11.845Z,6.30
2023-01-19T18:00:00.245Z,6.30
2023-01-19T18:02:51.547Z,6.30
2023-01-19T18:05:39.992Z,6.30
2023-01-19T18:08:28.448Z,6.30
2023-01-19T18:11:18.896Z,6.20
2023-01-19T18:14:08.652Z,6.20
2023-01-19T18:16:57.033Z,6.20
2023-01-19T18:19:45.627Z,6.20
2023-01-19T18:22:34.063Z,6.20
2023-01-19T18:25:22.507Z,6.20
2023-01-19T18:28:10.918Z,6.20
2023-01-19T18:31:00.895Z,6.20
2023-01-19T18:33:49.510Z,6.20
2023-01-19T18:36:37.987Z,6.10
2023-01-19T18:39:26.544Z,6.10
2023-01-19T18:42:15.007Z,6.10
2023-01-19T18:45:03.511Z,6.10
2023-01-19T18:47:53.346Z,6.10
2023-01-19T18:50:42.752Z,6.10
2023-01-19T18:53:32.079Z,6.10
2023-01-19T18:56:20.541Z,6.20
2023-01-19T18:59:08.928Z,6.20
2023-01-19T19:01:59.630Z,6.20
2023-01-19T19:04:49.462Z,6.20
2023-01-19T19:07:38.478Z,6.20
2023-01-19T19:10:26.898Z,6.20
2023-01-19T19:13:15.658Z,6.10
2023-01-19T19:16:05.315Z,6.10
2023-01-19T19:18:53.761Z,6.10
2023-01-19T19:21:43.707Z,6.10
2023-01-19T19:24:32.457Z,6.10
2023-01-19T19:27:20.932Z,6.10
2023-01-19T19:30:13.468Z,6.10
2023-01-19T19:33:02.031Z,6.10
2023-01-19T19:35:50.444Z,6.10
2023-01-19T19:38:41.073Z,6.10
2023-01-19T19:41:29.867Z,6.20
2023-01-19T19:44:18.339Z,6.20
2023-01-19T19:47:06.913Z,6.20
2023-01-19T19:49:55.350Z,6.20
2023-01-19T19:52:43.901Z,6.20
2023-01-19T19:55:33.682Z,6.20
2023-01-19T19:58:22.132Z,6.20
2023-01-19T20:01:11.272Z,6.20
2023-01-19T20:04:01.600Z,6.20
2023-01-19T20:06:50.199Z,6.20
2023-01-19T20:09:38.783Z,6.20
2023-01-19T20:12:28.595Z,6.30
2023-01-19T20:15:17.244Z,6.30
2023-01-19T20:18:05.972Z,6.30
2023-01-19T20:20:54.478Z,6.30
2023-01-19T20:23:43.143Z,6.20
2023-01-19T20:26:33.340Z,6.40
2023-01-19T20:29:23.148Z,6.30
2023-01-19T20:32:11.662Z,6.30
2023-01-19T20:35:00.305Z,6.20
2023-01-19T20:37:48.766Z,6.20
2023-01-19T20:40:37.189Z,6.20
2023-01-19T20:43:25.752Z,6.10
2023-01-19T20:46:15.571Z,6.10
2023-01-19T20:49:03.995Z,6.10
2023-01-19T20:51:53.309Z,6.00
2023-01-19T20:54:41.773Z,6.00
2023-01-19T20:57:30.206Z,5.90
2023-01-19T21:00:19.591Z,5.80
2023-01-19T21:03:09.300Z,5.80
2023-01-19T21:05:59.578Z,5.70
2023-01-19T21:08:49.572Z,5.70
2023-01-19T21:11:38.497Z,5.70
2023-01-19T21:14:26.969Z,5.60
2023-01-19T21:17:15.402Z,5.60
2023-01-19T21:20:06.589Z,5.50
2023-01-19T21:22:55.010Z,5.50
2023-01-19T21:25:50.806Z,5.50
2023-01-19T21:28:39.274Z,5.40
2023-01-19T21:31:28.276Z,5.40
2023-01-19T21:34:17.375Z,5.40
2023-01-19T21:37:07.294Z,5.40
2023-01-19T21:39:55.924Z,5.30
2023-01-19T21:42:44.335Z,5.30
2023-01-19T21:45:32.800Z,5.30
2023-01-19T21:48:21.221Z,5.20
2023-01-19T21:51:09.935Z,5.20
2023-01-19T21:54:00.389Z,5.20
2023-01-19T21:56:48.974Z,5.20
2023-01-19T21:59:37.435Z,5.20
2023-01-19T22:02:37.900Z,5.20
2023-01-19T22:05:26.831Z,5.20
2023-01-19T22:08:15.290Z,5.20
2023-01-19T22:11:06.224Z,5.10
2023-01-19T22:13:54.755Z,5.10
2023-01-19T22:16:43.234Z,5.20
2023-01-19T22:19:31.840Z,5.10
2023-01-19T22:22:20.294Z,5.20
2023-01-19T22:25:10.000Z,5.10
2023-01-19T22:27:59.888Z,5.10
2023-01-19T22:30:48.372Z,5.10
2023-01-19T22:33:37.144Z,5.10
2023-01-19T22:36:26.662Z,5.10
2023-01-19T22:39:15.100Z,5.10
2023-01-19T22:42:03.521Z,5.10
2023-01-19T22:44:53.302Z,5.10
2023-01-19T22:47:41.907Z,5.10
2023-01-19T22:50:30.403Z,5.10
2023-01-19T22:53:18.863Z,5.00
2023-01-19T22:56:14.615Z,5.00
2023-01-19T22:59:03.371Z,5.00
2023-01-19T23:01:53.435Z,5.00
2023-01-19T23:04:42.000Z,5.00
2023-01-19T23:07:30.420Z,5.00
2023-01-19T23:10:19.083Z,5.00
2023-01-19T23:13:07.517Z,5.00
2023-01-19T23:15:56.005Z,5.00
2023-01-19T23:18:45.859Z,5.00
2023-01-19T23:21:34.472Z,5.00
2023-01-19T23:24:22.901Z,5.00
2023-01-19T23:27:11.900Z,5.00
2023-01-19T23:30:00.386Z,5.00
2023-01-19T23:32:49.642Z,5.00
2023-01-19T23:35:39.506Z,5.00
2023-01-19T23:38:27.905Z,5.00
2023-01-19T23:41:16.392Z,5.00
2023-01-19T23:44:04.988Z,5.00
2023-01-19T23:46:53.454Z,5.00
2023-01-19T23:49:42.157Z,5.00
2023-01-19T23:52:31.967Z,5.10
2023-01-19T23:55:20.354Z,5.00
2023-01-19T23:58:08.795Z,5.10
